sensor_id;sensor_type;location;lat;lon;timestamp;temperature;humidity
35277;DHT22;21401;50.878;8.050;2022-07-05T00:00:45;13.20;99.90
35277;DHT22;21401;50.878;8.050;2022-07-05T00:03:12;13.10;99.90
35277;DHT22;21401;50.878;8.050;2022-07-05T00:05:38;13.30;99.90
35277;DHT22;21401;50.878;8.050;2022-07-05T00:08:04;13.40;99.90
35277;DHT22;21401;50.878;8.050;2022-07-05T00:10:34;13.30;99.90
35277;DHT22;21401;50.878;8.050;2022-07-05T00:13:01;13.30;99.90
35277;DHT22;21401;50.878;8.050;2022-07-05T00:15:26;13.20;99.90
35277;DHT22;21401;50.878;8.050;2022-07-05T00:17:52;13.10;99.90
35277;DHT22;21401;50.878;8.050;2022-07-05T00:20:20;13.20;99.90
35277;DHT22;21401;50.878;8.050;2022-07-05T00:22:46;13.30;99.90
35277;DHT22;21401;50.878;8.050;2022-07-05T00:25:11;13.30;99.90
35277;DHT22;21401;50.878;8.050;2022-07-05T00:27:37;12.90;99.90
35277;DHT22;21401;50.878;8.050;2022-07-05T00:30:06;12.70;99.90
35277;DHT22;21401;50.878;8.050;2022-07-05T00:32:32;12.60;99.90
35277;DHT22;21401;50.878;8.050;2022-07-05T00:34:57;12.60;99.90
35277;DHT22;21401;50.878;8.050;2022-07-05T00:37:23;12.60;99.90
35277;DHT22;21401;50.878;8.050;2022-07-05T00:39:51;12.50;99.90
35277;DHT22;21401;50.878;8.050;2022-07-05T00:42:17;12.30;99.90
35277;DHT22;21401;50.878;8.050;2022-07-05T00:44:43;12.40;99.90
35277;DHT22;21401;50.878;8.050;2022-07-05T00:47:10;12.40;99.90
35277;DHT22;21401;50.878;8.050;2022-07-05T00:49:37;12.40;99.90
35277;DHT22;21401;50.878;8.050;2022-07-05T00:52:04;12.50;99.90
35277;DHT22;21401;50.878;8.050;2022-07-05T00:54:33;12.30;99.90
35277;DHT22;21401;50.878;8.050;2022-07-05T00:56:59;12.10;99.90
35277;DHT22;21401;50.878;8.050;2022-07-05T00:59:26;12.00;99.90
35277;DHT22;21401;50.878;8.050;2022-07-05T01:01:52;11.80;99.90
35277;DHT22;21401;50.878;8.050;2022-07-05T01:04:19;11.90;99.90
35277;DHT22;21401;50.878;8.050;2022-07-05T01:06:48;12.10;99.90
35277;DHT22;21401;50.878;8.050;2022-07-05T01:09:17;12.30;99.90
35277;DHT22;21401;50.878;8.050;2022-07-05T01:11:44;12.10;99.90
35277;DHT22;21401;50.878;8.050;2022-07-05T01:14:15;12.20;99.90
35277;DHT22;21401;50.878;8.050;2022-07-05T01:16:41;12.10;99.90
35277;DHT22;21401;50.878;8.050;2022-07-05T01:19:07;11.80;99.90
35277;DHT22;21401;50.878;8.050;2022-07-05T01:21:40;11.70;99.90
35277;DHT22;21401;50.878;8.050;2022-07-05T01:24:07;11.60;99.90
35277;DHT22;21401;50.878;8.050;2022-07-05T01:26:33;11.50;99.90
35277;DHT22;21401;50.878;8.050;2022-07-05T01:28:59;11.40;99.90
35277;DHT22;21401;50.878;8.050;2022-07-05T01:31:25;11.60;99.90
35277;DHT22;21401;50.878;8.050;2022-07-05T01:33:50;11.70;99.90
35277;DHT22;21401;50.878;8.050;2022-07-05T01:36:16;11.50;99.90
35277;DHT22;21401;50.878;8.050;2022-07-05T01:38:42;11.40;99.90
35277;DHT22;21401;50.878;8.050;2022-07-05T01:41:11;11.50;99.90
35277;DHT22;21401;50.878;8.050;2022-07-05T01:43:36;11.70;99.90
35277;DHT22;21401;50.878;8.050;2022-07-05T01:46:04;11.60;99.90
35277;DHT22;21401;50.878;8.050;2022-07-05T01:48:35;11.60;99.90
35277;DHT22;21401;50.878;8.050;2022-07-05T01:51:29;11.70;99.90
35277;DHT22;21401;50.878;8.050;2022-07-05T01:53:58;11.80;99.90
35277;DHT22;21401;50.878;8.050;2022-07-05T01:56:26;11.70;99.90
35277;DHT22;21401;50.878;8.050;2022-07-05T01:58:52;11.70;99.90
35277;DHT22;21401;50.878;8.050;2022-07-05T02:01:32;11.90;99.90
35277;DHT22;21401;50.878;8.050;2022-07-05T02:04:01;11.70;99.90
35277;DHT22;21401;50.878;8.050;2022-07-05T02:06:27;11.40;99.90
35277;DHT22;21401;50.878;8.050;2022-07-05T02:08:53;11.20;99.90
35277;DHT22;21401;50.878;8.050;2022-07-05T02:11:19;11.40;99.90
35277;DHT22;21401;50.878;8.050;2022-07-05T02:13:44;11.60;99.90
35277;DHT22;21401;50.878;8.050;2022-07-05T02:16:12;11.70;99.90
35277;DHT22;21401;50.878;8.050;2022-07-05T02:18:38;11.80;99.90
35277;DHT22;21401;50.878;8.050;2022-07-05T02:21:03;11.60;99.90
35277;DHT22;21401;50.878;8.050;2022-07-05T02:23:29;11.30;99.90
35277;DHT22;21401;50.878;8.050;2022-07-05T02:25:54;11.30;99.90
35277;DHT22;21401;50.878;8.050;2022-07-05T02:28:20;11.40;99.90
35277;DHT22;21401;50.878;8.050;2022-07-05T02:30:45;11.40;99.90
35277;DHT22;21401;50.878;8.050;2022-07-05T02:33:14;11.20;99.90
35277;DHT22;21401;50.878;8.050;2022-07-05T02:35:39;11.30;99.90
35277;DHT22;21401;50.878;8.050;2022-07-05T02:38:05;11.30;99.90
35277;DHT22;21401;50.878;8.050;2022-07-05T02:40:31;11.20;99.90
35277;DHT22;21401;50.878;8.050;2022-07-05T02:42:56;11.10;99.90
35277;DHT22;21401;50.878;8.050;2022-07-05T02:45:23;10.90;99.90
35277;DHT22;21401;50.878;8.050;2022-07-05T02:47:48;10.80;99.90
35277;DHT22;21401;50.878;8.050;2022-07-05T02:50:16;10.80;99.90
35277;DHT22;21401;50.878;8.050;2022-07-05T02:52:42;10.80;99.90
35277;DHT22;21401;50.878;8.050;2022-07-05T02:55:10;10.80;99.90
35277;DHT22;21401;50.878;8.050;2022-07-05T02:57:38;10.90;99.90
35277;DHT22;21401;50.878;8.050;2022-07-05T03:00:04;10.90;99.90
35277;DHT22;21401;50.878;8.050;2022-07-05T03:02:30;10.80;99.90
35277;DHT22;21401;50.878;8.050;2022-07-05T03:04:56;11.00;99.90
35277;DHT22;21401;50.878;8.050;2022-07-05T03:07:21;10.90;99.90
35277;DHT22;21401;50.878;8.050;2022-07-05T03:09:47;10.90;99.90
35277;DHT22;21401;50.878;8.050;2022-07-05T03:12:13;10.80;99.90
35277;DHT22;21401;50.878;8.050;2022-07-05T03:14:38;10.90;99.90
35277;DHT22;21401;50.878;8.050;2022-07-05T03:17:04;11.00;99.90
35277;DHT22;21401;50.878;8.050;2022-07-05T03:19:29;11.10;99.90
35277;DHT22;21401;50.878;8.050;2022-07-05T03:21:55;11.30;99.90
35277;DHT22;21401;50.878;8.050;2022-07-05T03:24:20;11.30;99.90
35277;DHT22;21401;50.878;8.050;2022-07-05T03:26:46;11.30;99.90
35277;DHT22;21401;50.878;8.050;2022-07-05T03:29:12;11.10;99.90
35277;DHT22;21401;50.878;8.050;2022-07-05T03:31:37;11.10;99.90
35277;DHT22;21401;50.878;8.050;2022-07-05T03:34:05;10.90;99.90
35277;DHT22;21401;50.878;8.050;2022-07-05T03:36:31;10.80;99.90
35277;DHT22;21401;50.878;8.050;2022-07-05T03:38:56;10.70;99.90
35277;DHT22;21401;50.878;8.050;2022-07-05T03:41:22;10.50;99.90
35277;DHT22;21401;50.878;8.050;2022-07-05T03:43:50;10.60;99.90
35277;DHT22;21401;50.878;8.050;2022-07-05T03:46:16;10.40;99.90
35277;DHT22;21401;50.878;8.050;2022-07-05T03:48:41;10.50;99.90
35277;DHT22;21401;50.878;8.050;2022-07-05T03:51:07;10.70;99.90
35277;DHT22;21401;50.878;8.050;2022-07-05T03:53:35;10.50;99.90
35277;DHT22;21401;50.878;8.050;2022-07-05T03:56:01;10.50;99.90
35277;DHT22;21401;50.878;8.050;2022-07-05T03:58:26;10.50;99.90
35277;DHT22;21401;50.878;8.050;2022-07-05T04:00:52;10.40;99.90
35277;DHT22;21401;50.878;8.050;2022-07-05T04:03:17;10.40;99.90
35277;DHT22;21401;50.878;8.050;2022-07-05T04:05:43;10.40;99.90
35277;DHT22;21401;50.878;8.050;2022-07-05T04:08:09;10.40;99.90
35277;DHT22;21401;50.878;8.050;2022-07-05T04:10:34;10.50;99.90
35277;DHT22;21401;50.878;8.050;2022-07-05T04:13:00;10.60;99.90
35277;DHT22;21401;50.878;8.050;2022-07-05T04:15:25;10.60;99.90
35277;DHT22;21401;50.878;8.050;2022-07-05T04:17:55;10.60;99.90
35277;DHT22;21401;50.878;8.050;2022-07-05T04:20:23;10.50;99.90
35277;DHT22;21401;50.878;8.050;2022-07-05T04:22:50;10.50;99.90
35277;DHT22;21401;50.878;8.050;2022-07-05T04:25:17;10.60;99.90
35277;DHT22;21401;50.878;8.050;2022-07-05T04:27:48;10.70;99.90
35277;DHT22;21401;50.878;8.050;2022-07-05T04:30:14;10.80;99.90
35277;DHT22;21401;50.878;8.050;2022-07-05T04:32:40;11.00;99.90
35277;DHT22;21401;50.878;8.050;2022-07-05T04:35:06;11.10;99.90
35277;DHT22;21401;50.878;8.050;2022-07-05T04:37:32;11.00;99.90
35277;DHT22;21401;50.878;8.050;2022-07-05T04:39:58;10.80;99.90
35277;DHT22;21401;50.878;8.050;2022-07-05T04:42:26;10.70;99.90
35277;DHT22;21401;50.878;8.050;2022-07-05T04:44:52;10.90;99.90
35277;DHT22;21401;50.878;8.050;2022-07-05T04:47:17;11.10;99.90
35277;DHT22;21401;50.878;8.050;2022-07-05T04:49:43;11.40;99.90
35277;DHT22;21401;50.878;8.050;2022-07-05T04:52:09;11.40;99.90
35277;DHT22;21401;50.878;8.050;2022-07-05T04:54:36;11.30;99.90
35277;DHT22;21401;50.878;8.050;2022-07-05T04:57:02;11.40;99.90
35277;DHT22;21401;50.878;8.050;2022-07-05T04:59:27;11.30;99.90
35277;DHT22;21401;50.878;8.050;2022-07-05T05:01:53;11.40;99.90
35277;DHT22;21401;50.878;8.050;2022-07-05T05:04:18;11.50;99.90
35277;DHT22;21401;50.878;8.050;2022-07-05T05:06:44;11.80;99.90
35277;DHT22;21401;50.878;8.050;2022-07-05T05:09:10;12.00;99.90
35277;DHT22;21401;50.878;8.050;2022-07-05T05:11:35;11.80;99.90
35277;DHT22;21401;50.878;8.050;2022-07-05T05:14:01;11.90;99.90
35277;DHT22;21401;50.878;8.050;2022-07-05T05:16:26;12.10;99.90
35277;DHT22;21401;50.878;8.050;2022-07-05T05:18:52;12.20;99.90
35277;DHT22;21401;50.878;8.050;2022-07-05T05:21:20;12.30;99.90
35277;DHT22;21401;50.878;8.050;2022-07-05T05:23:45;12.40;99.90
35277;DHT22;21401;50.878;8.050;2022-07-05T05:26:11;12.50;99.90
35277;DHT22;21401;50.878;8.050;2022-07-05T05:28:37;12.70;99.90
35277;DHT22;21401;50.878;8.050;2022-07-05T05:31:03;12.70;99.90
35277;DHT22;21401;50.878;8.050;2022-07-05T05:33:28;12.80;99.90
35277;DHT22;21401;50.878;8.050;2022-07-05T05:35:54;12.90;99.90
35277;DHT22;21401;50.878;8.050;2022-07-05T05:38:19;12.90;99.90
35277;DHT22;21401;50.878;8.050;2022-07-05T05:40:45;13.20;99.90
35277;DHT22;21401;50.878;8.050;2022-07-05T05:43:11;13.40;99.90
35277;DHT22;21401;50.878;8.050;2022-07-05T05:45:37;13.50;99.90
35277;DHT22;21401;50.878;8.050;2022-07-05T05:48:03;13.70;99.90
35277;DHT22;21401;50.878;8.050;2022-07-05T05:50:33;14.00;99.90
35277;DHT22;21401;50.878;8.050;2022-07-05T05:53:00;14.20;99.90
35277;DHT22;21401;50.878;8.050;2022-07-05T05:55:27;14.40;99.90
35277;DHT22;21401;50.878;8.050;2022-07-05T05:57:54;14.60;99.90
35277;DHT22;21401;50.878;8.050;2022-07-05T06:00:21;14.70;99.90
35277;DHT22;21401;50.878;8.050;2022-07-05T06:02:48;14.90;99.90
35277;DHT22;21401;50.878;8.050;2022-07-05T06:05:14;15.00;99.90
35277;DHT22;21401;50.878;8.050;2022-07-05T06:07:52;15.10;99.90
35277;DHT22;21401;50.878;8.050;2022-07-05T06:10:27;15.30;99.90
35277;DHT22;21401;50.878;8.050;2022-07-05T06:12:54;15.60;99.90
35277;DHT22;21401;50.878;8.050;2022-07-05T06:15:21;15.70;99.90
35277;DHT22;21401;50.878;8.050;2022-07-05T06:17:47;15.80;99.90
35277;DHT22;21401;50.878;8.050;2022-07-05T06:20:15;16.00;99.90
35277;DHT22;21401;50.878;8.050;2022-07-05T06:22:41;16.20;99.90
35277;DHT22;21401;50.878;8.050;2022-07-05T06:25:09;16.30;99.90
35277;DHT22;21401;50.878;8.050;2022-07-05T06:27:42;16.30;99.90
35277;DHT22;21401;50.878;8.050;2022-07-05T06:30:12;16.50;99.90
35277;DHT22;21401;50.878;8.050;2022-07-05T06:32:38;16.80;99.90
35277;DHT22;21401;50.878;8.050;2022-07-05T06:35:04;17.10;99.90
35277;DHT22;21401;50.878;8.050;2022-07-05T06:40:21;16.80;99.90
35277;DHT22;21401;50.878;8.050;2022-07-05T06:42:47;16.80;99.90
35277;DHT22;21401;50.878;8.050;2022-07-05T06:45:12;17.10;99.90
35277;DHT22;21401;50.878;8.050;2022-07-05T06:47:38;17.10;99.90
35277;DHT22;21401;50.878;8.050;2022-07-05T06:50:05;17.30;99.90
35277;DHT22;21401;50.878;8.050;2022-07-05T06:52:33;17.20;99.90
35277;DHT22;21401;50.878;8.050;2022-07-05T06:54:59;17.30;99.90
35277;DHT22;21401;50.878;8.050;2022-07-05T06:57:25;17.60;99.90
35277;DHT22;21401;50.878;8.050;2022-07-05T06:59:52;17.80;99.90
35277;DHT22;21401;50.878;8.050;2022-07-05T07:02:18;18.00;99.90
35277;DHT22;21401;50.878;8.050;2022-07-05T07:04:50;17.80;99.90
35277;DHT22;21401;50.878;8.050;2022-07-05T07:07:15;17.80;99.90
35277;DHT22;21401;50.878;8.050;2022-07-05T07:10:02;18.00;99.90
35277;DHT22;21401;50.878;8.050;2022-07-05T07:12:28;17.90;99.90
35277;DHT22;21401;50.878;8.050;2022-07-05T07:14:55;18.30;99.90
35277;DHT22;21401;50.878;8.050;2022-07-05T07:17:21;18.40;99.90
35277;DHT22;21401;50.878;8.050;2022-07-05T07:19:47;18.20;99.90
35277;DHT22;21401;50.878;8.050;2022-07-05T07:22:12;18.60;99.90
35277;DHT22;21401;50.878;8.050;2022-07-05T07:24:38;18.90;99.90
35277;DHT22;21401;50.878;8.050;2022-07-05T07:27:04;18.80;99.90
35277;DHT22;21401;50.878;8.050;2022-07-05T07:29:35;18.80;99.90
35277;DHT22;21401;50.878;8.050;2022-07-05T07:32:01;18.90;99.90
35277;DHT22;21401;50.878;8.050;2022-07-05T07:34:29;19.10;99.90
35277;DHT22;21401;50.878;8.050;2022-07-05T07:36:57;19.40;99.90
35277;DHT22;21401;50.878;8.050;2022-07-05T07:39:26;19.70;99.90
35277;DHT22;21401;50.878;8.050;2022-07-05T07:41:53;19.70;99.90
35277;DHT22;21401;50.878;8.050;2022-07-05T07:44:19;19.90;99.90
35277;DHT22;21401;50.878;8.050;2022-07-05T07:46:45;20.10;99.90
35277;DHT22;21401;50.878;8.050;2022-07-05T07:49:11;20.00;99.90
35277;DHT22;21401;50.878;8.050;2022-07-05T07:51:38;19.80;99.90
35277;DHT22;21401;50.878;8.050;2022-07-05T07:54:04;19.70;99.90
35277;DHT22;21401;50.878;8.050;2022-07-05T07:56:29;20.00;99.90
35277;DHT22;21401;50.878;8.050;2022-07-05T07:58:55;20.50;99.90
35277;DHT22;21401;50.878;8.050;2022-07-05T08:01:21;20.70;99.90
35277;DHT22;21401;50.878;8.050;2022-07-05T08:03:46;20.80;99.90
35277;DHT22;21401;50.878;8.050;2022-07-05T08:06:13;20.50;99.90
35277;DHT22;21401;50.878;8.050;2022-07-05T08:08:44;20.60;99.90
35277;DHT22;21401;50.878;8.050;2022-07-05T08:11:11;21.10;99.90
35277;DHT22;21401;50.878;8.050;2022-07-05T08:13:37;21.00;99.90
35277;DHT22;21401;50.878;8.050;2022-07-05T08:16:03;21.40;99.90
35277;DHT22;21401;50.878;8.050;2022-07-05T08:18:29;21.40;99.90
35277;DHT22;21401;50.878;8.050;2022-07-05T08:21:13;21.70;99.90
35277;DHT22;21401;50.878;8.050;2022-07-05T08:24:02;21.40;99.90
35277;DHT22;21401;50.878;8.050;2022-07-05T08:26:28;21.70;99.90
35277;DHT22;21401;50.878;8.050;2022-07-05T08:28:56;21.50;99.90
35277;DHT22;21401;50.878;8.050;2022-07-05T08:31:24;21.20;99.90
35277;DHT22;21401;50.878;8.050;2022-07-05T08:33:53;21.30;99.90
35277;DHT22;21401;50.878;8.050;2022-07-05T08:36:19;21.70;99.90
35277;DHT22;21401;50.878;8.050;2022-07-05T08:38:46;21.90;99.70
35277;DHT22;21401;50.878;8.050;2022-07-05T08:41:12;22.20;99.80
35277;DHT22;21401;50.878;8.050;2022-07-05T08:43:41;22.40;99.00
35277;DHT22;21401;50.878;8.050;2022-07-05T08:46:08;22.40;98.60
35277;DHT22;21401;50.878;8.050;2022-07-05T08:48:39;22.70;99.30
35277;DHT22;21401;50.878;8.050;2022-07-05T08:51:17;22.70;99.00
35277;DHT22;21401;50.878;8.050;2022-07-05T08:53:43;22.80;98.90
35277;DHT22;21401;50.878;8.050;2022-07-05T08:56:11;23.00;98.90
35277;DHT22;21401;50.878;8.050;2022-07-05T08:58:38;22.90;97.60
35277;DHT22;21401;50.878;8.050;2022-07-05T09:01:05;22.80;98.40
35277;DHT22;21401;50.878;8.050;2022-07-05T09:03:33;23.00;98.00
35277;DHT22;21401;50.878;8.050;2022-07-05T09:06:02;22.90;98.10
35277;DHT22;21401;50.878;8.050;2022-07-05T09:08:30;23.30;97.90
35277;DHT22;21401;50.878;8.050;2022-07-05T09:11:00;23.20;97.50
35277;DHT22;21401;50.878;8.050;2022-07-05T09:13:37;23.20;97.80
35277;DHT22;21401;50.878;8.050;2022-07-05T09:16:06;22.80;98.60
35277;DHT22;21401;50.878;8.050;2022-07-05T09:18:50;22.40;98.40
35277;DHT22;21401;50.878;8.050;2022-07-05T09:21:18;21.70;99.50
35277;DHT22;21401;50.878;8.050;2022-07-05T09:23:59;21.20;99.90
35277;DHT22;21401;50.878;8.050;2022-07-05T09:26:35;21.70;99.90
35277;DHT22;21401;50.878;8.050;2022-07-05T09:29:07;21.30;99.90
35277;DHT22;21401;50.878;8.050;2022-07-05T09:31:38;21.10;99.90
35277;DHT22;21401;50.878;8.050;2022-07-05T09:34:09;21.90;99.90
35277;DHT22;21401;50.878;8.050;2022-07-05T09:55:03;21.20;98.40
35277;DHT22;21401;50.878;8.050;2022-07-05T09:57:29;21.50;98.10
35277;DHT22;21401;50.878;8.050;2022-07-05T09:59:59;22.20;97.40
35277;DHT22;21401;50.878;8.050;2022-07-05T10:05:19;23.00;95.00
35277;DHT22;21401;50.878;8.050;2022-07-05T10:07:52;23.40;94.40
35277;DHT22;21401;50.878;8.050;2022-07-05T10:10:31;23.20;93.20
35277;DHT22;21401;50.878;8.050;2022-07-05T10:12:59;22.60;92.90
35277;DHT22;21401;50.878;8.050;2022-07-05T10:15:28;22.30;92.80
35277;DHT22;21401;50.878;8.050;2022-07-05T10:18:04;22.10;94.20
35277;DHT22;21401;50.878;8.050;2022-07-05T10:23:06;22.70;93.80
35277;DHT22;21401;50.878;8.050;2022-07-05T10:25:32;23.20;93.40
35277;DHT22;21401;50.878;8.050;2022-07-05T10:27:58;23.40;91.50
35277;DHT22;21401;50.878;8.050;2022-07-05T10:30:25;23.50;91.40
35277;DHT22;21401;50.878;8.050;2022-07-05T10:32:51;23.30;92.40
35277;DHT22;21401;50.878;8.050;2022-07-05T10:35:18;22.60;93.00
35277;DHT22;21401;50.878;8.050;2022-07-05T10:37:44;22.50;93.30
35277;DHT22;21401;50.878;8.050;2022-07-05T10:40:11;22.40;93.20
35277;DHT22;21401;50.878;8.050;2022-07-05T10:42:54;22.50;92.80
35277;DHT22;21401;50.878;8.050;2022-07-05T10:46:06;23.30;92.40
35277;DHT22;21401;50.878;8.050;2022-07-05T10:48:19;23.90;91.80
35277;DHT22;21401;50.878;8.050;2022-07-05T10:56:10;23.70;92.00
35277;DHT22;21401;50.878;8.050;2022-07-05T10:58:44;23.90;91.70
35277;DHT22;21401;50.878;8.050;2022-07-05T11:06:28;24.40;91.30
35277;DHT22;21401;50.878;8.050;2022-07-05T11:11:36;23.20;88.40
35277;DHT22;21401;50.878;8.050;2022-07-05T11:14:04;23.90;89.00
35277;DHT22;21401;50.878;8.050;2022-07-05T11:16:34;24.40;86.60
35277;DHT22;21401;50.878;8.050;2022-07-05T11:19:11;24.00;85.50
35277;DHT22;21401;50.878;8.050;2022-07-05T11:21:39;24.00;86.20
35277;DHT22;21401;50.878;8.050;2022-07-05T11:26:43;23.50;90.30
35277;DHT22;21401;50.878;8.050;2022-07-05T11:32:06;22.70;90.80
35277;DHT22;21401;50.878;8.050;2022-07-05T11:34:33;23.00;90.40
35277;DHT22;21401;50.878;8.050;2022-07-05T11:42:35;23.90;87.90
35277;DHT22;21401;50.878;8.050;2022-07-05T11:45:06;23.20;82.90
35277;DHT22;21401;50.878;8.050;2022-07-05T11:47:35;24.30;87.00
35277;DHT22;21401;50.878;8.050;2022-07-05T11:50:00;24.00;87.40
35277;DHT22;21401;50.878;8.050;2022-07-05T11:52:30;24.10;87.70
35277;DHT22;21401;50.878;8.050;2022-07-05T11:54:57;24.30;88.50
35277;DHT22;21401;50.878;8.050;2022-07-05T11:57:26;24.40;87.50
35277;DHT22;21401;50.878;8.050;2022-07-05T11:59:52;24.30;86.90
35277;DHT22;21401;50.878;8.050;2022-07-05T12:02:18;24.60;87.20
35277;DHT22;21401;50.878;8.050;2022-07-05T12:04:48;24.40;85.50
35277;DHT22;21401;50.878;8.050;2022-07-05T12:07:31;23.70;86.00
35277;DHT22;21401;50.878;8.050;2022-07-05T12:10:01;23.80;83.70
35277;DHT22;21401;50.878;8.050;2022-07-05T12:12:47;23.90;82.50
35277;DHT22;21401;50.878;8.050;2022-07-05T12:15:19;23.70;81.10
35277;DHT22;21401;50.878;8.050;2022-07-05T12:17:50;23.70;83.10
35277;DHT22;21401;50.878;8.050;2022-07-05T12:20:23;23.80;84.70
35277;DHT22;21401;50.878;8.050;2022-07-05T12:22:50;24.10;83.50
35277;DHT22;21401;50.878;8.050;2022-07-05T12:25:20;24.60;82.70
35277;DHT22;21401;50.878;8.050;2022-07-05T12:27:50;24.70;80.60
35277;DHT22;21401;50.878;8.050;2022-07-05T12:30:17;24.40;80.00
35277;DHT22;21401;50.878;8.050;2022-07-05T12:40:29;23.10;82.80
35277;DHT22;21401;50.878;8.050;2022-07-05T12:43:09;23.80;83.10
35277;DHT22;21401;50.878;8.050;2022-07-05T12:45:36;23.90;81.60
35277;DHT22;21401;50.878;8.050;2022-07-05T12:48:04;24.20;82.10
35277;DHT22;21401;50.878;8.050;2022-07-05T12:50:51;24.00;81.80
35277;DHT22;21401;50.878;8.050;2022-07-05T12:53:18;24.10;80.60
35277;DHT22;21401;50.878;8.050;2022-07-05T12:56:05;24.40;79.80
35277;DHT22;21401;50.878;8.050;2022-07-05T13:01:41;24.20;80.10
35277;DHT22;21401;50.878;8.050;2022-07-05T13:04:13;23.90;78.60
35277;DHT22;21401;50.878;8.050;2022-07-05T13:12:12;24.30;78.10
35277;DHT22;21401;50.878;8.050;2022-07-05T13:17:09;25.20;77.50
35277;DHT22;21401;50.878;8.050;2022-07-05T13:19:36;23.90;76.50
35277;DHT22;21401;50.878;8.050;2022-07-05T13:22:02;24.10;78.20
35277;DHT22;21401;50.878;8.050;2022-07-05T13:24:31;24.40;78.60
35277;DHT22;21401;50.878;8.050;2022-07-05T13:26:57;24.60;79.80
35277;DHT22;21401;50.878;8.050;2022-07-05T13:29:25;24.30;81.40
35277;DHT22;21401;50.878;8.050;2022-07-05T13:31:51;24.20;81.00
35277;DHT22;21401;50.878;8.050;2022-07-05T13:34:17;23.90;81.70
35277;DHT22;21401;50.878;8.050;2022-07-05T13:36:43;24.60;81.80
35277;DHT22;21401;50.878;8.050;2022-07-05T13:39:10;24.70;81.70
35277;DHT22;21401;50.878;8.050;2022-07-05T13:41:38;25.20;80.90
35277;DHT22;21401;50.878;8.050;2022-07-05T13:44:04;25.00;79.70
35277;DHT22;21401;50.878;8.050;2022-07-05T13:46:30;24.30;79.40
35277;DHT22;21401;50.878;8.050;2022-07-05T13:48:55;24.00;81.50
35277;DHT22;21401;50.878;8.050;2022-07-05T13:51:21;24.40;81.70
35277;DHT22;21401;50.878;8.050;2022-07-05T13:53:46;24.70;80.30
35277;DHT22;21401;50.878;8.050;2022-07-05T13:56:12;24.20;78.80
35277;DHT22;21401;50.878;8.050;2022-07-05T13:58:38;23.90;80.40
35277;DHT22;21401;50.878;8.050;2022-07-05T14:01:04;24.20;80.60
35277;DHT22;21401;50.878;8.050;2022-07-05T14:03:30;24.40;79.90
35277;DHT22;21401;50.878;8.050;2022-07-05T14:05:55;24.70;80.60
35277;DHT22;21401;50.878;8.050;2022-07-05T14:08:21;24.60;80.40
35277;DHT22;21401;50.878;8.050;2022-07-05T14:10:49;24.50;80.10
35277;DHT22;21401;50.878;8.050;2022-07-05T14:13:19;24.80;80.40
35277;DHT22;21401;50.878;8.050;2022-07-05T14:15:49;24.70;80.00
35277;DHT22;21401;50.878;8.050;2022-07-05T14:18:19;24.90;80.10
35277;DHT22;21401;50.878;8.050;2022-07-05T14:20:45;24.70;79.70
35277;DHT22;21401;50.878;8.050;2022-07-05T14:23:14;24.50;79.60
35277;DHT22;21401;50.878;8.050;2022-07-05T14:25:41;24.50;79.70
35277;DHT22;21401;50.878;8.050;2022-07-05T14:28:07;24.50;77.90
35277;DHT22;21401;50.878;8.050;2022-07-05T14:30:39;23.70;78.20
35277;DHT22;21401;50.878;8.050;2022-07-05T14:33:05;23.80;80.40
35277;DHT22;21401;50.878;8.050;2022-07-05T14:35:32;23.20;82.20
35277;DHT22;21401;50.878;8.050;2022-07-05T14:38:01;23.50;83.60
35277;DHT22;21401;50.878;8.050;2022-07-05T14:40:27;23.90;82.60
35277;DHT22;21401;50.878;8.050;2022-07-05T14:42:54;24.40;82.70
35277;DHT22;21401;50.878;8.050;2022-07-05T14:45:20;24.60;81.20
35277;DHT22;21401;50.878;8.050;2022-07-05T14:47:49;24.30;81.30
35277;DHT22;21401;50.878;8.050;2022-07-05T14:50:14;23.90;81.00
35277;DHT22;21401;50.878;8.050;2022-07-05T14:52:41;24.20;82.40
35277;DHT22;21401;50.878;8.050;2022-07-05T14:55:08;24.00;81.50
35277;DHT22;21401;50.878;8.050;2022-07-05T14:57:37;24.10;81.90
35277;DHT22;21401;50.878;8.050;2022-07-05T15:00:10;24.00;83.10
35277;DHT22;21401;50.878;8.050;2022-07-05T15:02:35;24.20;81.50
35277;DHT22;21401;50.878;8.050;2022-07-05T15:05:02;23.80;82.80
35277;DHT22;21401;50.878;8.050;2022-07-05T15:07:28;23.70;82.50
35277;DHT22;21401;50.878;8.050;2022-07-05T15:09:53;23.70;83.20
35277;DHT22;21401;50.878;8.050;2022-07-05T15:12:22;24.00;83.50
35277;DHT22;21401;50.878;8.050;2022-07-05T15:14:47;24.00;82.40
35277;DHT22;21401;50.878;8.050;2022-07-05T15:17:13;24.20;82.50
35277;DHT22;21401;50.878;8.050;2022-07-05T15:19:39;24.10;82.30
35277;DHT22;21401;50.878;8.050;2022-07-05T15:22:06;24.10;80.90
35277;DHT22;21401;50.878;8.050;2022-07-05T15:24:32;23.70;80.20
35277;DHT22;21401;50.878;8.050;2022-07-05T15:26:58;23.80;79.90
35277;DHT22;21401;50.878;8.050;2022-07-05T15:29:24;23.40;80.90
35277;DHT22;21401;50.878;8.050;2022-07-05T15:31:50;23.60;80.60
35277;DHT22;21401;50.878;8.050;2022-07-05T15:34:16;23.20;80.90
35277;DHT22;21401;50.878;8.050;2022-07-05T15:36:42;23.70;80.80
35277;DHT22;21401;50.878;8.050;2022-07-05T15:39:08;23.50;80.50
35277;DHT22;21401;50.878;8.050;2022-07-05T15:41:33;23.60;79.70
35277;DHT22;21401;50.878;8.050;2022-07-05T15:43:59;23.90;80.20
35277;DHT22;21401;50.878;8.050;2022-07-05T15:46:25;24.20;81.00
35277;DHT22;21401;50.878;8.050;2022-07-05T15:49:14;23.60;79.50
35277;DHT22;21401;50.878;8.050;2022-07-05T15:51:42;23.80;81.00
35277;DHT22;21401;50.878;8.050;2022-07-05T15:54:07;23.20;80.50
35277;DHT22;21401;50.878;8.050;2022-07-05T15:56:33;22.70;82.00
35277;DHT22;21401;50.878;8.050;2022-07-05T15:58:59;22.90;83.70
35277;DHT22;21401;50.878;8.050;2022-07-05T16:01:24;22.70;81.50
35277;DHT22;21401;50.878;8.050;2022-07-05T16:03:50;22.50;82.00
35277;DHT22;21401;50.878;8.050;2022-07-05T16:06:18;22.70;82.20
35277;DHT22;21401;50.878;8.050;2022-07-05T16:08:43;22.90;81.70
35277;DHT22;21401;50.878;8.050;2022-07-05T16:11:09;22.90;81.50
35277;DHT22;21401;50.878;8.050;2022-07-05T16:13:35;23.00;81.40
35277;DHT22;21401;50.878;8.050;2022-07-05T16:16:00;23.20;82.50
35277;DHT22;21401;50.878;8.050;2022-07-05T16:18:46;23.40;82.90
35277;DHT22;21401;50.878;8.050;2022-07-05T16:21:14;23.40;83.10
35277;DHT22;21401;50.878;8.050;2022-07-05T16:23:42;23.10;83.70
35277;DHT22;21401;50.878;8.050;2022-07-05T16:26:09;22.90;85.10
35277;DHT22;21401;50.878;8.050;2022-07-05T16:28:36;22.70;84.30
35277;DHT22;21401;50.878;8.050;2022-07-05T16:31:05;22.70;85.10
35277;DHT22;21401;50.878;8.050;2022-07-05T16:33:36;22.60;85.00
35277;DHT22;21401;50.878;8.050;2022-07-05T16:38:34;22.90;84.80
35277;DHT22;21401;50.878;8.050;2022-07-05T16:41:00;23.10;83.60
35277;DHT22;21401;50.878;8.050;2022-07-05T16:43:26;23.20;84.00
35277;DHT22;21401;50.878;8.050;2022-07-05T16:45:56;23.20;84.00